createdAt,value
2022-11-01T00:01:26.892Z,32.78
2022-11-01T00:03:53.655Z,31.42
2022-11-01T00:06:20.536Z,35.40
2022-11-01T00:08:47.330Z,33.55
2022-11-01T04:03:24.698Z,26.10
2022-11-01T04:08:18.029Z,30.83
2022-11-01T04:13:11.542Z,28.10
2022-11-01T04:18:43.347Z,26.67
2022-11-01T04:21:12.107Z,24.52
2022-11-01T04:23:39.375Z,26.75
2022-11-01T04:26:07.328Z,28.10
2022-11-01T04:28:34.105Z,29.13
2022-11-01T04:33:27.509Z,28.02
2022-11-01T04:35:54.217Z,28.35
2022-11-01T04:38:20.960Z,29.33
2022-11-01T04:43:14.379Z,32.55
2022-11-01T04:48:13.767Z,28.77
2022-11-01T04:50:42.051Z,31.02
2022-11-01T04:53:10.260Z,33.55
2022-11-01T04:55:37.405Z,31.60
2022-11-01T04:58:04.814Z,32.50
2022-11-01T05:00:33.068Z,34.20
2022-11-01T05:03:05.786Z,29.02
2022-11-01T05:05:33.022Z,29.90
2022-11-01T05:08:10.775Z,33.53
2022-11-01T05:10:39.959Z,37.13
2022-11-01T05:13:07.408Z,35.65
2022-11-01T05:15:39.782Z,34.40
2022-11-01T05:18:10.547Z,38.28
2022-11-01T05:20:37.240Z,33.53
2022-11-01T05:23:06.155Z,32.17
2022-11-01T05:25:37.068Z,35.42
2022-11-01T05:28:11.082Z,34.28
2022-11-01T05:30:38.797Z,31.98
2022-11-01T05:33:06.795Z,39.67
2022-11-01T05:35:35.235Z,41.95
2022-11-01T05:38:03.927Z,36.30
2022-11-01T05:40:31.718Z,41.85
2022-11-01T05:42:58.680Z,44.63
2022-11-01T05:45:26.034Z,30.77
2022-11-01T05:47:53.082Z,34.67
2022-11-01T05:50:20.263Z,34.55
2022-11-01T05:52:47.054Z,31.67
2022-11-01T05:57:40.797Z,31.15
2022-11-01T06:02:34.556Z,39.55
2022-11-01T06:07:30.321Z,38.58
2022-11-01T06:09:57.084Z,34.38
2022-11-01T06:12:25.492Z,33.67
2022-11-01T06:14:52.533Z,40.15
2022-11-01T06:17:19.914Z,35.63
2022-11-01T06:19:46.676Z,35.88
2022-11-01T06:22:13.742Z,42.40
2022-11-01T06:24:40.447Z,39.17
2022-11-01T06:27:10.109Z,43.13
2022-11-01T06:29:39.468Z,37.00
2022-11-01T06:34:33.288Z,41.35
2022-11-01T06:37:00.097Z,39.70
2022-11-01T06:41:53.922Z,41.97
2022-11-01T06:44:20.983Z,39.72
2022-11-01T06:46:47.669Z,41.80
2022-11-01T06:49:17.985Z,39.83
2022-11-01T06:51:46.307Z,35.97
2022-11-01T06:54:13.106Z,38.75
2022-11-01T06:59:06.922Z,37.05
2022-11-01T07:04:00.553Z,36.70
2022-11-01T07:08:59.392Z,39.13
2022-11-01T07:11:31.295Z,42.17
2022-11-01T07:13:59.404Z,41.70
2022-11-01T07:16:26.780Z,48.20
2022-11-01T07:18:58.887Z,42.10
2022-11-01T07:21:25.635Z,42.55
2022-11-01T07:26:21.220Z,41.35
2022-11-01T07:28:48.083Z,44.47
2022-11-01T07:31:14.983Z,46.75
2022-11-01T07:33:41.721Z,42.25
2022-11-01T07:38:35.188Z,37.60
2022-11-01T07:43:30.408Z,43.88
2022-11-01T07:46:00.491Z,47.78
2022-11-01T07:48:27.584Z,45.72
2022-11-01T07:50:57.249Z,48.00
2022-11-01T07:53:24.191Z,42.03
2022-11-01T07:55:51.390Z,43.38
2022-11-01T07:58:18.162Z,47.22
2022-11-01T08:00:45.897Z,46.22
2022-11-01T08:03:17.666Z,44.40
2022-11-01T08:05:45.623Z,41.40
2022-11-01T08:08:13.215Z,48.28
2022-11-01T08:10:40.284Z,44.00
2022-11-01T08:13:20.143Z,41.50
2022-11-01T08:15:48.075Z,38.58
2022-11-01T08:18:16.242Z,42.05
2022-11-01T08:20:43.583Z,38.85
2022-11-01T08:23:11.493Z,38.70
2022-11-01T08:25:38.603Z,37.58
2022-11-01T08:28:08.472Z,37.25
2022-11-01T08:30:40.132Z,38.72
2022-11-01T08:33:07.073Z,37.03
2022-11-01T08:35:34.772Z,35.92
2022-11-01T08:38:04.968Z,39.58
2022-11-01T08:40:33.389Z,35.63
2022-11-01T08:43:00.983Z,27.02
2022-11-01T08:45:28.535Z,29.35
2022-11-01T08:47:59.926Z,28.05
2022-11-01T08:50:27.474Z,26.23
2022-11-01T08:52:54.551Z,32.40
2022-11-01T08:55:21.895Z,36.58
2022-11-01T08:57:48.893Z,27.60
2022-11-01T09:00:17.589Z,34.25
2022-11-01T09:02:44.296Z,32.33
2022-11-01T09:05:11.044Z,31.85
2022-11-01T09:07:38.525Z,34.08
2022-11-01T09:10:06.375Z,30.67
2022-11-01T09:12:33.367Z,31.58
2022-11-01T09:15:02.845Z,30.20
2022-11-01T09:17:30.106Z,33.67
2022-11-01T09:19:56.896Z,34.80
2022-11-01T09:22:23.765Z,34.10
2022-11-01T09:24:51.514Z,33.20
2022-11-01T09:27:18.225Z,38.83
2022-11-01T09:29:46.756Z,42.85
2022-11-01T09:32:16.253Z,44.97
2022-11-01T09:34:42.988Z,42.75
2022-11-01T09:37:09.718Z,41.95
2022-11-01T09:39:36.432Z,44.75
2022-11-01T09:42:07.071Z,39.20
2022-11-01T09:44:39.742Z,43.65
2022-11-01T09:47:23.364Z,40.95
2022-11-01T09:50:16.394Z,43.17
2022-11-01T09:52:43.250Z,45.78
2022-11-01T09:55:15.328Z,40.30
2022-11-01T09:57:55.005Z,35.00
2022-11-01T10:00:22.112Z,41.80
2022-11-01T10:03:20.183Z,38.95
2022-11-01T10:06:02.518Z,36.03
2022-11-01T10:08:35.234Z,33.65
2022-11-01T10:11:39.014Z,34.83
2022-11-01T10:14:31.997Z,30.00
2022-11-01T10:17:14.673Z,32.30
2022-11-01T10:19:48.433Z,32.40
2022-11-01T10:22:31.321Z,34.28
2022-11-01T10:25:04.274Z,31.20
2022-11-01T10:30:16.340Z,33.70
2022-11-01T10:32:50.954Z,31.30
2022-11-01T10:35:24.105Z,38.88
2022-11-01T10:38:10.979Z,36.00
2022-11-01T10:40:51.719Z,28.80
2022-11-01T10:43:23.810Z,28.88
2022-11-01T10:45:55.260Z,31.90
2022-11-01T10:48:33.721Z,34.80
2022-11-01T10:51:03.773Z,33.45
2022-11-01T10:53:36.527Z,34.08
2022-11-01T10:56:09.104Z,33.03
2022-11-01T10:58:54.664Z,32.53
2022-11-01T11:03:53.294Z,31.95
2022-11-01T11:06:20.545Z,34.05
2022-11-01T11:08:54.335Z,36.15
2022-11-01T11:11:46.561Z,43.20
2022-11-01T11:14:14.689Z,41.63
2022-11-01T11:16:48.216Z,47.75
2022-11-01T11:19:22.376Z,39.13
2022-11-01T11:21:51.633Z,41.70
2022-11-01T11:24:24.229Z,41.55
2022-11-01T11:26:54.710Z,45.28
2022-11-01T11:29:30.363Z,38.50
2022-11-01T11:31:59.461Z,43.47
2022-11-01T11:34:32.535Z,42.10
2022-11-01T11:37:01.679Z,41.28
2022-11-01T11:39:36.915Z,44.40
2022-11-01T11:42:24.007Z,39.45
2022-11-01T11:44:55.908Z,41.00
2022-11-01T11:47:29.043Z,38.25
2022-11-01T11:49:58.385Z,46.20
2022-11-01T11:52:38.420Z,45.67
2022-11-01T11:55:06.579Z,48.50
2022-11-01T11:57:34.335Z,43.67
2022-11-01T12:00:05.484Z,45.13
2022-11-01T12:02:40.919Z,48.13
2022-11-01T12:05:15.219Z,49.30
2022-11-01T12:07:51.083Z,51.55
2022-11-01T12:10:37.900Z,49.65
2022-11-01T12:13:27.761Z,47.88
2022-11-01T12:19:01.194Z,48.22
2022-11-01T12:21:41.269Z,49.60
2022-11-01T12:24:19.157Z,44.22
2022-11-01T12:26:47.135Z,49.17
2022-11-01T12:29:24.653Z,49.80
2022-11-01T12:31:53.780Z,49.67
2022-11-01T12:34:31.888Z,42.08
2022-11-01T12:37:17.988Z,42.88
2022-11-01T12:40:06.867Z,52.63
2022-11-01T12:42:56.565Z,49.55
2022-11-01T12:45:32.074Z,48.50
2022-11-01T12:48:03.908Z,36.35
2022-11-01T12:51:06.751Z,36.28
2022-11-01T12:53:48.004Z,34.42
2022-11-01T12:56:14.928Z,25.27
2022-11-01T12:58:41.773Z,28.45
2022-11-01T13:01:30.280Z,20.48
2022-11-01T13:04:07.605Z,24.77
2022-11-01T13:06:34.311Z,20.92
2022-11-01T13:09:12.972Z,17.25
2022-11-01T13:12:00.127Z,23.58
2022-11-01T13:14:38.688Z,18.60
2022-11-01T13:17:24.024Z,20.60
2022-11-01T13:20:14.543Z,24.45
2022-11-01T13:23:06.431Z,22.75
2022-11-01T13:28:26.319Z,17.75
2022-11-01T13:31:07.421Z,21.95
2022-11-01T13:34:00.015Z,18.40
2022-11-01T13:36:36.290Z,23.27
2022-11-01T13:39:19.965Z,19.15
2022-11-01T13:41:54.250Z,20.83
2022-11-01T13:44:27.633Z,20.98
2022-11-01T13:47:17.153Z,22.77
2022-11-01T13:49:59.611Z,21.80
2022-11-01T13:52:29.077Z,18.98
2022-11-01T13:55:24.670Z,22.23
2022-11-01T13:57:53.422Z,25.95
2022-11-01T14:00:44.808Z,22.77
2022-11-01T14:03:25.479Z,23.05
2022-11-01T14:06:26.546Z,19.92
2022-11-01T14:09:20.057Z,18.48
2022-11-01T14:11:49.918Z,17.98
2022-11-01T14:14:31.723Z,20.88
2022-11-01T14:17:19.263Z,18.70
2022-11-01T14:20:14.327Z,19.65
2022-11-01T14:22:45.000Z,20.00
2022-11-01T14:25:12.361Z,15.88
2022-11-01T14:27:50.346Z,21.20
2022-11-01T14:30:24.440Z,16.30
2022-11-01T14:32:59.708Z,19.95
2022-11-01T14:35:30.539Z,17.45
2022-11-01T14:38:05.399Z,20.27
2022-11-01T14:40:42.616Z,21.20
2022-11-01T14:43:23.510Z,20.45
2022-11-01T14:45:57.943Z,19.58
2022-11-01T14:48:55.503Z,20.08
2022-11-01T14:51:46.532Z,24.35
2022-11-01T14:54:36.675Z,19.13
2022-11-01T14:57:20.917Z,17.58
2022-11-01T14:59:47.654Z,17.83
2022-11-01T15:02:14.520Z,21.38
2022-11-01T15:04:44.572Z,21.60
2022-11-01T15:07:27.677Z,22.20
2022-11-01T15:10:06.747Z,19.60
2022-11-01T15:12:47.464Z,20.80
2022-11-01T15:15:21.977Z,15.05
2022-11-01T15:18:17.505Z,23.17
2022-11-01T15:20:51.298Z,24.67
2022-11-01T15:23:32.210Z,18.67
2022-11-01T15:26:04.476Z,21.45
2022-11-01T15:28:43.137Z,23.83
2022-11-01T15:31:10.130Z,16.67
2022-11-01T15:33:37.333Z,18.85
2022-11-01T15:36:08.657Z,18.20
2022-11-01T15:38:50.490Z,18.23
2022-11-01T15:41:35.037Z,20.35
2022-11-01T15:44:06.957Z,20.17
2022-11-01T15:46:41.576Z,18.75
2022-11-01T15:49:21.292Z,16.80
2022-11-01T15:51:57.879Z,22.40
2022-11-01T15:54:32.161Z,22.55
2022-11-01T15:57:02.524Z,20.27
2022-11-01T15:59:42.288Z,21.77
2022-11-01T16:02:25.165Z,23.77
2022-11-01T16:04:52.272Z,19.80
2022-11-01T16:07:21.414Z,23.02
2022-11-01T16:09:55.122Z,18.48
2022-11-01T16:12:32.073Z,20.40
2022-11-01T16:15:04.105Z,28.60
2022-11-01T16:17:30.834Z,23.30
2022-11-01T16:19:57.609Z,27.58
2022-11-01T16:22:42.247Z,22.55
2022-11-01T16:25:11.756Z,20.95
2022-11-01T16:28:04.329Z,21.00
2022-11-01T16:30:40.223Z,22.50
2022-11-01T16:33:19.945Z,25.23
2022-11-01T16:36:08.362Z,26.45
2022-11-01T16:38:40.829Z,18.65
2022-11-01T16:41:20.170Z,25.65
2022-11-01T16:44:00.019Z,22.77
2022-11-01T16:46:29.407Z,20.67
2022-11-01T16:48:57.715Z,24.98
2022-11-01T16:51:28.350Z,24.40
2022-11-01T16:53:57.001Z,22.45
2022-11-01T16:56:36.583Z,17.73
2022-11-01T16:59:14.920Z,22.75
2022-11-01T17:01:44.836Z,22.27
2022-11-01T17:04:13.141Z,22.75
2022-11-01T17:06:39.879Z,19.40
2022-11-01T17:09:18.501Z,24.55
2022-11-01T17:11:50.922Z,22.60
2022-11-01T17:14:18.933Z,21.05
2022-11-01T17:16:47.496Z,28.08
2022-11-01T17:19:29.843Z,22.17
2022-11-01T17:21:58.165Z,29.33
2022-11-01T17:24:27.425Z,28.40
2022-11-01T17:26:57.807Z,25.92
2022-11-01T17:29:24.732Z,25.20
2022-11-01T17:31:51.441Z,25.63
2022-11-01T17:34:18.726Z,22.58
2022-11-01T17:36:48.419Z,29.38
2022-11-01T17:39:15.476Z,31.60
2022-11-01T17:41:42.179Z,29.67
2022-11-01T17:44:13.881Z,30.88
2022-11-01T17:46:40.635Z,30.60
2022-11-01T17:49:07.434Z,25.58
2022-11-01T17:51:34.193Z,25.48
2022-11-01T17:54:00.964Z,27.88
2022-11-01T17:56:27.719Z,32.67
2022-11-01T17:58:54.438Z,27.13
2022-11-01T18:01:21.789Z,29.08
2022-11-01T18:03:49.341Z,28.52
2022-11-01T18:06:16.481Z,26.17
2022-11-01T18:08:46.169Z,27.20
2022-11-01T18:11:33.289Z,33.15
2022-11-01T18:14:17.213Z,30.63
2022-11-01T18:16:49.826Z,30.55
2022-11-01T18:19:28.636Z,31.85
2022-11-01T18:22:25.964Z,30.75
2022-11-01T18:25:05.391Z,26.60
2022-11-01T18:27:37.652Z,26.60
2022-11-01T18:30:18.790Z,29.73
2022-11-01T18:32:54.881Z,27.52
2022-11-01T18:35:49.902Z,25.15
2022-11-01T18:38:41.248Z,23.67
2022-11-01T18:41:13.094Z,29.58
2022-11-01T18:43:40.232Z,25.48
2022-11-01T18:46:26.742Z,26.73
2022-11-01T18:49:02.217Z,25.60
2022-11-01T18:51:32.024Z,27.25
2022-11-01T18:54:14.147Z,29.35
2022-11-01T18:56:58.460Z,28.83
2022-11-01T18:59:27.601Z,27.40
2022-11-01T19:02:27.044Z,28.80
2022-11-01T19:05:18.247Z,26.40
2022-11-01T19:08:10.097Z,23.85
2022-11-01T19:10:39.910Z,27.20
2022-11-01T19:13:12.831Z,27.50
2022-11-01T19:18:26.776Z,25.50
2022-11-01T19:20:56.087Z,28.38
2022-11-01T19:23:28.908Z,28.45
2022-11-01T19:25:55.596Z,29.52
2022-11-01T19:28:30.575Z,27.50
2022-11-01T19:31:20.113Z,25.00
2022-11-01T19:33:48.248Z,27.00
2022-11-01T19:36:19.082Z,27.23
2022-11-01T19:38:48.104Z,26.50
2022-11-01T19:41:19.519Z,27.38
2022-11-01T19:43:48.988Z,26.35
2022-11-01T19:46:20.620Z,28.88
2022-11-01T19:48:48.294Z,26.23
2022-11-01T19:51:22.485Z,26.55
2022-11-01T19:53:50.289Z,24.98
2022-11-01T19:56:25.735Z,30.25
2022-11-01T19:59:00.048Z,27.42
2022-11-01T20:01:32.843Z,35.17
2022-11-01T20:04:12.265Z,25.63
2022-11-01T20:06:48.537Z,26.00
2022-11-01T20:09:25.260Z,26.40
2022-11-01T20:11:52.773Z,26.25
2022-11-01T20:14:19.835Z,27.58
2022-11-01T20:16:46.827Z,27.63
2022-11-01T20:19:17.382Z,22.45
2022-11-01T20:21:45.130Z,23.38
2022-11-01T20:24:11.982Z,29.20
2022-11-01T20:26:39.116Z,25.90
2022-11-01T20:29:05.876Z,27.50
2022-11-01T20:31:32.787Z,23.20
2022-11-01T20:34:00.163Z,24.42
2022-11-01T20:36:28.149Z,27.33
2022-11-01T20:38:55.207Z,25.40
2022-11-01T20:41:22.449Z,26.35
2022-11-01T20:43:49.600Z,21.33
2022-11-01T20:46:16.574Z,19.48
2022-11-01T20:48:45.261Z,21.98
2022-11-01T20:51:13.353Z,25.02
2022-11-01T20:53:41.189Z,27.10
2022-11-01T20:56:08.607Z,20.88
2022-11-01T20:58:40.270Z,20.58
2022-11-01T21:01:25.439Z,19.88
2022-11-01T21:03:53.880Z,22.98
2022-11-01T21:06:31.378Z,24.98
2022-11-01T21:08:58.699Z,20.38
2022-11-01T21:11:46.108Z,18.33
2022-11-01T21:14:16.829Z,24.65
2022-11-01T21:16:50.111Z,20.38
2022-11-01T21:19:20.718Z,19.67
2022-11-01T21:21:51.843Z,21.73
2022-11-01T21:24:32.408Z,19.10
2022-11-01T21:27:07.351Z,16.17
2022-11-01T21:29:34.442Z,18.85
2022-11-01T21:32:02.503Z,22.02
2022-11-01T21:34:31.670Z,19.75
2022-11-01T21:36:59.307Z,15.07
2022-11-01T21:39:33.065Z,17.52
2022-11-01T21:42:01.596Z,18.55
2022-11-01T21:44:29.546Z,17.98
2022-11-01T21:47:14.504Z,17.50
2022-11-01T21:49:41.239Z,16.40
2022-11-01T21:54:42.400Z,17.63
2022-11-01T21:57:10.971Z,20.75
2022-11-01T21:59:38.017Z,16.35
2022-11-01T22:02:06.888Z,16.55
2022-11-01T22:04:33.895Z,18.75
2022-11-01T22:07:05.999Z,17.23
2022-11-01T22:09:33.225Z,21.75
2022-11-01T22:12:01.114Z,21.23
2022-11-01T22:14:27.952Z,18.83
2022-11-01T22:16:54.688Z,22.88
2022-11-01T22:19:21.409Z,21.25
2022-11-01T22:24:14.792Z,20.67
2022-11-01T22:29:08.196Z,17.80
2022-11-01T22:31:34.882Z,22.63
2022-11-01T22:36:30.874Z,21.83
2022-11-01T22:38:59.577Z,27.13
2022-11-01T22:41:33.409Z,21.75
2022-11-01T22:44:12.054Z,21.67
2022-11-01T22:46:46.558Z,20.08
2022-11-01T22:49:34.161Z,21.95
2022-11-01T22:52:16.795Z,20.65
2022-11-01T22:54:49.860Z,19.80
2022-11-01T22:59:57.764Z,20.00
2022-11-01T23:02:37.525Z,21.00
2022-11-01T23:05:07.465Z,18.40
2022-11-01T23:07:35.469Z,18.45
2022-11-01T23:10:20.015Z,21.38
2022-11-01T23:13:05.531Z,22.60
2022-11-01T23:18:11.757Z,19.75
2022-11-01T23:20:40.726Z,17.50
2022-11-01T23:23:15.334Z,15.70
2022-11-01T23:25:42.079Z,17.42
2022-11-01T23:30:36.436Z,18.33
2022-11-01T23:33:03.626Z,22.85
2022-11-01T23:35:30.576Z,17.70
2022-11-01T23:37:58.079Z,21.05
2022-11-01T23:40:31.443Z,19.13
2022-11-01T23:42:58.293Z,16.52
2022-11-01T23:45:32.199Z,17.73
2022-11-01T23:47:59.511Z,19.65
2022-11-01T23:50:35.508Z,16.40
2022-11-01T23:53:06.187Z,17.48
2022-11-01T23:55:37.970Z,16.23
2022-11-01T23:58:11.783Z,17.60
